createdAt,value
2017-07-15T00:00:23.646Z,23.01
2017-07-15T00:00:49.188Z,22.96
2017-07-15T00:01:14.749Z,22.99
2017-07-15T00:01:40.306Z,22.97
2017-07-15T00:02:05.868Z,22.99
2017-07-15T00:02:31.525Z,22.97
2017-07-15T00:02:57.173Z,23.01
2017-07-15T00:03:22.756Z,22.97
2017-07-15T00:03:48.351Z,22.99
2017-07-15T00:04:13.944Z,22.97
2017-07-15T00:04:39.516Z,23.01
2017-07-15T00:05:05.096Z,22.99
2017-07-15T00:05:30.703Z,23.05
2017-07-15T00:05:56.246Z,22.96
2017-07-15T00:06:21.810Z,22.99
2017-07-15T00:06:47.372Z,22.96
2017-07-15T00:07:12.923Z,22.99
2017-07-15T00:07:38.478Z,22.97
2017-07-15T00:08:04.046Z,22.94
2017-07-15T00:08:29.639Z,22.99
2017-07-15T00:08:55.250Z,22.97
2017-07-15T00:09:20.825Z,22.97
2017-07-15T00:09:46.389Z,22.92
2017-07-15T00:10:11.945Z,22.96
2017-07-15T00:10:37.527Z,23.01
2017-07-15T00:11:03.109Z,22.97
2017-07-15T00:11:28.666Z,22.99
2017-07-15T00:11:54.218Z,22.96
2017-07-15T00:12:19.765Z,23.02
2017-07-15T00:12:45.333Z,22.93
2017-07-15T00:13:10.929Z,23.01
2017-07-15T00:13:36.590Z,22.96
2017-07-15T00:14:02.140Z,22.97
2017-07-15T00:14:27.695Z,22.96
2017-07-15T00:14:53.251Z,22.96
2017-07-15T00:15:18.829Z,23.04
2017-07-15T00:15:44.369Z,22.94
2017-07-15T00:16:09.950Z,22.96
2017-07-15T00:16:35.498Z,22.99
2017-07-15T00:17:01.065Z,22.89
2017-07-15T00:17:26.655Z,22.99
2017-07-15T00:17:52.208Z,22.99
2017-07-15T00:18:17.826Z,22.93
2017-07-15T00:18:43.377Z,22.9
2017-07-15T00:19:08.961Z,22.93
2017-07-15T00:19:34.516Z,22.96
2017-07-15T00:20:00.090Z,22.96
2017-07-15T00:20:25.653Z,22.97
2017-07-15T00:20:51.345Z,22.92
2017-07-15T00:21:16.915Z,22.94
2017-07-15T00:21:42.467Z,22.93
2017-07-15T00:22:08.021Z,22.96
2017-07-15T00:22:33.593Z,23.02
2017-07-15T00:22:59.203Z,22.9
2017-07-15T00:23:24.766Z,22.97
2017-07-15T00:23:50.355Z,22.96
2017-07-15T00:24:15.936Z,22.97
2017-07-15T00:24:41.483Z,22.96
2017-07-15T00:25:07.058Z,22.99
2017-07-15T00:25:32.627Z,22.94
2017-07-15T00:25:58.253Z,22.93
2017-07-15T00:26:23.821Z,22.92
2017-07-15T00:26:49.378Z,22.93
2017-07-15T00:27:14.955Z,22.94
2017-07-15T00:28:03.640Z,23.04
2017-07-15T00:28:29.186Z,22.9
2017-07-15T00:28:54.742Z,22.99
2017-07-15T00:29:20.290Z,23.01
2017-07-15T00:29:45.851Z,22.94
2017-07-15T00:30:11.426Z,22.92
2017-07-15T00:30:36.998Z,22.87
2017-07-15T00:31:02.544Z,23.02
2017-07-15T00:31:28.112Z,22.93
2017-07-15T00:31:53.677Z,22.94
2017-07-15T00:32:19.247Z,22.96
2017-07-15T00:32:44.834Z,22.94
2017-07-15T00:33:10.396Z,22.94
2017-07-15T00:33:35.956Z,22.93
2017-07-15T00:34:01.509Z,22.9
2017-07-15T00:34:27.057Z,22.89
2017-07-15T00:34:52.649Z,22.92
2017-07-15T00:35:18.311Z,22.9
2017-07-15T00:35:43.878Z,22.83
2017-07-15T00:36:09.440Z,22.93
2017-07-15T00:36:34.989Z,22.93
2017-07-15T00:37:00.548Z,22.94
2017-07-15T00:37:26.104Z,22.94
2017-07-15T00:37:51.677Z,22.92
2017-07-15T00:38:17.232Z,22.94
2017-07-15T00:38:42.794Z,22.94
2017-07-15T00:39:36.620Z,22.94
2017-07-15T00:40:02.176Z,22.94
2017-07-15T00:40:27.775Z,22.92
2017-07-15T00:40:53.342Z,22.92
2017-07-15T00:41:18.909Z,22.9
2017-07-15T00:41:44.485Z,22.94
2017-07-15T00:42:10.046Z,23.02
2017-07-15T00:42:35.678Z,22.97
2017-07-15T00:43:01.254Z,22.93
2017-07-15T00:43:26.804Z,22.99
2017-07-15T00:43:52.356Z,22.97
2017-07-15T00:44:17.915Z,22.92
2017-07-15T00:44:43.450Z,22.94
2017-07-15T00:45:09.034Z,22.92
2017-07-15T00:45:34.592Z,22.92
2017-07-15T00:46:00.151Z,22.94
2017-07-15T00:46:25.718Z,22.86
2017-07-15T00:46:51.413Z,22.97
2017-07-15T00:47:16.985Z,22.9
2017-07-15T00:47:42.534Z,22.9
2017-07-15T00:48:08.136Z,22.9
2017-07-15T00:48:33.674Z,22.93
2017-07-15T00:48:59.243Z,22.93
2017-07-15T00:49:59.056Z,22.92
2017-07-15T00:50:24.620Z,22.87
2017-07-15T00:50:50.151Z,22.93
2017-07-15T00:51:15.714Z,22.94
2017-07-15T00:51:41.279Z,22.9
2017-07-15T00:52:06.823Z,22.9
2017-07-15T00:52:32.387Z,22.89
2017-07-15T00:52:57.954Z,22.86
2017-07-15T00:53:23.517Z,22.93
2017-07-15T00:53:49.101Z,22.92
2017-07-15T00:54:14.664Z,22.84
2017-07-15T00:54:40.223Z,22.94
2017-07-15T00:55:05.793Z,22.93
2017-07-15T00:55:31.392Z,22.92
2017-07-15T00:55:56.956Z,22.9
2017-07-15T00:56:22.594Z,22.96
2017-07-15T00:56:48.161Z,22.86
2017-07-15T00:57:13.717Z,22.93
2017-07-15T00:57:39.300Z,22.89
2017-07-15T00:58:04.884Z,22.89
2017-07-15T00:58:30.430Z,22.87
2017-07-15T00:58:56.154Z,22.92
2017-07-15T00:59:21.701Z,22.87
2017-07-15T00:59:47.284Z,22.87
2017-07-15T01:00:12.860Z,22.87
2017-07-15T01:00:38.448Z,22.9
2017-07-15T01:01:04.038Z,22.84
2017-07-15T01:01:29.585Z,22.89
2017-07-15T01:01:55.173Z,22.93
2017-07-15T01:02:20.726Z,22.86
2017-07-15T01:02:46.289Z,22.86
2017-07-15T01:03:11.929Z,22.92
2017-07-15T01:03:37.486Z,22.89
2017-07-15T01:04:03.085Z,22.89
2017-07-15T01:04:28.693Z,22.94
2017-07-15T01:04:54.275Z,22.84
2017-07-15T01:05:19.830Z,22.93
2017-07-15T01:05:45.395Z,22.94
2017-07-15T01:06:10.966Z,22.94
2017-07-15T01:06:36.525Z,22.86
2017-07-15T01:07:02.079Z,22.92
2017-07-15T01:07:27.644Z,22.92
2017-07-15T01:07:53.201Z,22.92
2017-07-15T01:08:18.792Z,22.94
2017-07-15T01:08:44.428Z,22.86
2017-07-15T01:09:09.998Z,22.93
2017-07-15T01:09:35.592Z,22.93
2017-07-15T01:10:01.164Z,22.93
2017-07-15T01:10:26.724Z,22.92
2017-07-15T01:10:52.300Z,22.94
2017-07-15T01:11:17.834Z,22.9
2017-07-15T01:11:43.394Z,22.9
2017-07-15T01:12:08.970Z,22.93
2017-07-15T01:12:34.530Z,22.9
2017-07-15T01:13:00.129Z,22.94
2017-07-15T01:13:25.690Z,22.89
2017-07-15T01:13:51.243Z,22.9
2017-07-15T01:14:16.812Z,22.9
2017-07-15T01:14:42.391Z,22.89
2017-07-15T01:15:08.046Z,22.94
2017-07-15T01:15:33.605Z,22.89
2017-07-15T01:15:59.159Z,22.92
2017-07-15T01:16:24.758Z,22.93
2017-07-15T01:16:50.309Z,22.9
2017-07-15T01:17:15.906Z,22.92
2017-07-15T01:17:41.474Z,22.87
2017-07-15T01:18:07.030Z,22.89
2017-07-15T01:18:32.594Z,22.94
2017-07-15T01:18:58.149Z,22.87
2017-07-15T01:19:23.747Z,22.87
2017-07-15T01:19:49.374Z,22.9
2017-07-15T01:20:14.998Z,22.89
2017-07-15T01:20:40.555Z,22.89
2017-07-15T01:21:06.117Z,22.87
2017-07-15T01:21:31.744Z,22.87
2017-07-15T01:21:57.302Z,22.94
2017-07-15T01:22:22.858Z,22.93
2017-07-15T01:22:48.455Z,22.92
2017-07-15T01:23:14.024Z,22.9
2017-07-15T01:23:39.587Z,22.84
2017-07-15T01:24:05.224Z,22.9
2017-07-15T01:24:30.788Z,22.89
2017-07-15T01:24:56.340Z,22.89
2017-07-15T01:25:21.888Z,22.87
2017-07-15T01:25:47.460Z,22.9
2017-07-15T01:26:13.014Z,22.93
2017-07-15T01:26:38.610Z,22.93
2017-07-15T01:27:04.176Z,22.87
2017-07-15T01:27:29.750Z,22.94
2017-07-15T01:27:55.390Z,22.92
2017-07-15T01:28:20.950Z,22.9
2017-07-15T01:28:46.511Z,22.93
2017-07-15T01:29:12.099Z,22.89
2017-07-15T01:29:37.648Z,22.89
2017-07-15T01:30:03.217Z,22.93
2017-07-15T01:30:28.788Z,22.92
2017-07-15T01:30:54.402Z,22.89
2017-07-15T01:31:19.979Z,22.92
2017-07-15T01:31:45.599Z,22.9
2017-07-15T01:32:11.158Z,22.93
2017-07-15T01:32:36.700Z,22.92
2017-07-15T01:33:02.282Z,22.89
2017-07-15T01:33:27.840Z,22.93
2017-07-15T01:33:53.406Z,22.94
2017-07-15T01:34:18.978Z,22.9
2017-07-15T01:34:44.643Z,22.9
2017-07-15T01:35:10.204Z,22.89
2017-07-15T01:35:35.769Z,22.87
2017-07-15T01:36:01.347Z,22.92
2017-07-15T01:36:26.987Z,22.93
2017-07-15T01:36:52.540Z,22.89
2017-07-15T01:37:18.132Z,22.93
2017-07-15T01:37:43.679Z,22.9
2017-07-15T01:38:09.324Z,22.93
2017-07-15T01:38:34.872Z,22.9
2017-07-15T01:39:00.420Z,22.93
2017-07-15T01:39:26.004Z,22.92
2017-07-15T01:39:51.597Z,22.93
2017-07-15T01:40:17.188Z,22.93
2017-07-15T01:40:42.754Z,22.9
2017-07-15T01:41:08.315Z,22.92
2017-07-15T01:41:33.883Z,22.93
2017-07-15T01:41:59.441Z,22.87
2017-07-15T01:42:25.012Z,22.93
2017-07-15T01:42:50.560Z,22.92
2017-07-15T01:43:16.132Z,22.93
2017-07-15T01:43:41.689Z,22.86
2017-07-15T01:44:07.254Z,22.86
2017-07-15T01:44:32.842Z,22.87
2017-07-15T01:44:58.426Z,22.9
2017-07-15T01:45:23.992Z,22.87
2017-07-15T01:45:49.553Z,22.9
2017-07-15T01:46:15.112Z,22.93
2017-07-15T01:46:40.689Z,22.92
2017-07-15T01:47:06.256Z,22.89
2017-07-15T01:47:31.832Z,22.92
2017-07-15T01:47:57.371Z,22.87
2017-07-15T01:48:22.920Z,22.93
2017-07-15T01:48:48.613Z,22.87
2017-07-15T01:49:14.193Z,22.87
2017-07-15T01:49:40.676Z,22.86
2017-07-15T01:50:05.401Z,22.89
2017-07-15T01:50:30.988Z,22.94
2017-07-15T01:50:56.542Z,22.87
2017-07-15T01:51:22.105Z,22.9
2017-07-15T01:51:47.703Z,22.9
2017-07-15T01:52:13.261Z,22.86
2017-07-15T01:52:38.856Z,22.93
2017-07-15T01:53:04.469Z,22.9
2017-07-15T01:53:30.062Z,22.92
2017-07-15T01:53:55.621Z,22.84
2017-07-15T01:54:21.178Z,22.89
2017-07-15T01:54:46.794Z,22.93
2017-07-15T01:55:12.351Z,22.93
2017-07-15T01:55:37.901Z,22.89
2017-07-15T01:56:03.461Z,22.93
2017-07-15T01:56:29.019Z,22.9
2017-07-15T01:56:54.596Z,22.89
2017-07-15T01:57:20.148Z,22.93
2017-07-15T01:57:45.731Z,22.9
2017-07-15T01:58:11.303Z,22.92
2017-07-15T01:58:36.854Z,22.86
2017-07-15T01:59:02.399Z,22.94
2017-07-15T01:59:27.991Z,22.96
2017-07-15T01:59:53.551Z,22.94
2017-07-15T02:00:19.263Z,22.89
2017-07-15T02:00:44.806Z,22.89
2017-07-15T02:01:10.492Z,22.93
2017-07-15T02:01:36.055Z,22.87
2017-07-15T02:02:01.648Z,22.89
2017-07-15T02:02:27.241Z,22.89
2017-07-15T02:02:52.800Z,22.92
2017-07-15T02:03:18.363Z,22.89
2017-07-15T02:03:43.966Z,22.9
2017-07-15T02:04:09.512Z,22.87
2017-07-15T02:04:35.067Z,22.9
2017-07-15T02:05:00.626Z,22.9
2017-07-15T02:05:26.180Z,22.9
2017-07-15T02:05:51.740Z,22.92
2017-07-15T02:06:17.300Z,22.89
2017-07-15T02:06:42.862Z,22.92
2017-07-15T02:07:08.439Z,22.92
2017-07-15T02:07:34.033Z,22.9
2017-07-15T02:07:59.605Z,22.9
2017-07-15T02:08:25.151Z,22.89
2017-07-15T02:08:50.719Z,22.84
2017-07-15T02:09:16.276Z,22.89
2017-07-15T02:09:41.992Z,22.89
2017-07-15T02:10:07.562Z,22.89
2017-07-15T02:10:33.120Z,22.86
2017-07-15T02:10:58.684Z,22.93
2017-07-15T02:11:24.237Z,22.87
2017-07-15T02:11:49.802Z,22.92
2017-07-15T02:12:15.450Z,22.89
2017-07-15T02:12:41.031Z,22.9
2017-07-15T02:13:06.586Z,22.93
2017-07-15T02:13:32.143Z,22.93
2017-07-15T02:13:57.714Z,22.87
2017-07-15T02:14:23.280Z,22.92
2017-07-15T02:14:48.825Z,22.87
2017-07-15T02:15:14.491Z,22.9
2017-07-15T02:15:40.058Z,22.86
2017-07-15T02:16:05.628Z,22.9
2017-07-15T02:16:31.211Z,22.9
2017-07-15T02:16:56.858Z,22.9
2017-07-15T02:17:22.440Z,22.9
2017-07-15T02:17:48.041Z,22.89
2017-07-15T02:18:13.627Z,22.89
2017-07-15T02:18:39.207Z,22.84
2017-07-15T02:19:04.752Z,22.93
2017-07-15T02:19:30.352Z,22.86
2017-07-15T02:19:55.915Z,22.93
2017-07-15T02:20:21.470Z,22.93
2017-07-15T02:20:47.040Z,22.87
2017-07-15T02:21:12.602Z,22.9
2017-07-15T02:21:38.158Z,22.84
2017-07-15T02:22:03.766Z,22.89
2017-07-15T02:22:29.351Z,22.89
2017-07-15T02:22:54.911Z,22.89
2017-07-15T02:23:20.461Z,22.93
2017-07-15T02:23:46.031Z,22.92
2017-07-15T02:24:11.581Z,22.9
2017-07-15T02:24:37.191Z,22.86
2017-07-15T02:25:02.758Z,22.93
2017-07-15T02:25:28.303Z,22.9
2017-07-15T02:25:53.870Z,22.9
2017-07-15T02:26:19.428Z,22.93
2017-07-15T02:26:44.999Z,22.86
2017-07-15T02:27:10.583Z,22.87
2017-07-15T02:27:36.157Z,22.93
2017-07-15T02:28:01.707Z,22.9
2017-07-15T02:28:27.340Z,22.9
2017-07-15T02:28:52.913Z,22.9
2017-07-15T02:29:18.479Z,22.94
2017-07-15T02:29:44.042Z,22.9
2017-07-15T02:30:09.603Z,22.93
2017-07-15T02:30:35.172Z,22.93
2017-07-15T02:31:00.872Z,22.86
2017-07-15T02:31:26.438Z,22.9
2017-07-15T02:31:52.015Z,22.96
2017-07-15T02:32:17.597Z,22.9
2017-07-15T02:32:43.165Z,22.9
2017-07-15T02:33:08.742Z,22.92
2017-07-15T02:33:34.293Z,22.9
2017-07-15T02:33:59.981Z,22.9
2017-07-15T02:34:25.577Z,22.9
2017-07-15T02:34:51.171Z,22.87
2017-07-15T02:35:16.723Z,22.94
2017-07-15T02:35:42.268Z,22.87
2017-07-15T02:36:07.824Z,22.9
2017-07-15T02:36:33.382Z,22.92
2017-07-15T02:36:58.938Z,22.89
2017-07-15T02:37:24.529Z,22.92
2017-07-15T02:37:50.076Z,22.9
2017-07-15T02:38:15.626Z,22.89
2017-07-15T02:38:41.260Z,22.9
2017-07-15T02:39:06.842Z,22.9
2017-07-15T02:39:32.391Z,22.89
2017-07-15T02:39:58.039Z,22.89
2017-07-15T02:40:23.602Z,22.89
2017-07-15T02:40:49.190Z,22.9
2017-07-15T02:41:14.729Z,22.9
2017-07-15T02:41:40.294Z,22.89
2017-07-15T02:42:05.852Z,22.9
2017-07-15T02:42:31.522Z,22.84
2017-07-15T02:42:57.112Z,22.86
2017-07-15T02:43:22.668Z,22.89
2017-07-15T02:43:48.253Z,22.87
2017-07-15T02:44:13.829Z,22.9
2017-07-15T02:44:39.358Z,22.92
2017-07-15T02:45:04.961Z,22.86
2017-07-15T02:45:30.524Z,22.93
2017-07-15T02:45:56.082Z,22.87
2017-07-15T02:46:21.628Z,22.94
2017-07-15T02:46:47.190Z,22.87
2017-07-15T02:47:12.826Z,22.86
2017-07-15T02:47:38.432Z,22.87
2017-07-15T02:48:03.990Z,22.9
2017-07-15T02:48:29.550Z,22.93
2017-07-15T02:48:55.111Z,22.92
2017-07-15T02:49:20.719Z,22.93
2017-07-15T02:49:46.362Z,22.93
2017-07-15T02:50:11.910Z,22.96
2017-07-15T02:50:37.473Z,22.87
2017-07-15T02:51:03.028Z,22.89
2017-07-15T02:51:28.616Z,22.9
2017-07-15T02:51:54.189Z,22.86
2017-07-15T02:52:19.770Z,22.89
2017-07-15T02:52:45.325Z,22.94
2017-07-15T02:53:10.878Z,22.9
2017-07-15T02:53:36.452Z,22.89
2017-07-15T02:54:02.029Z,22.86
2017-07-15T02:54:27.587Z,22.87
2017-07-15T02:54:53.152Z,22.9
2017-07-15T02:55:18.756Z,22.92
2017-07-15T02:55:44.446Z,22.96
2017-07-15T02:56:10.038Z,22.92
2017-07-15T02:56:35.603Z,22.87
2017-07-15T02:57:01.152Z,22.93
2017-07-15T02:57:26.739Z,22.83
2017-07-15T02:57:52.280Z,22.89
2017-07-15T02:58:18.255Z,22.89
2017-07-15T02:58:43.825Z,22.89
2017-07-15T02:59:09.377Z,22.89
2017-07-15T02:59:35.061Z,22.87
2017-07-15T03:00:00.610Z,22.93
2017-07-15T03:00:26.189Z,22.92
2017-07-15T03:00:51.780Z,22.96
2017-07-15T03:01:17.338Z,22.87
2017-07-15T03:01:42.883Z,22.9
2017-07-15T03:02:08.442Z,22.86
2017-07-15T03:02:34.022Z,22.87
2017-07-15T03:02:59.589Z,22.92
2017-07-15T03:03:25.207Z,22.9
2017-07-15T03:03:50.769Z,22.87
2017-07-15T03:04:16.340Z,22.97
2017-07-15T03:04:41.991Z,22.86
2017-07-15T03:05:07.554Z,22.94
2017-07-15T03:05:33.111Z,22.9
2017-07-15T03:05:58.675Z,22.87
2017-07-15T03:07:02.803Z,22.94
2017-07-15T03:07:28.382Z,22.93
2017-07-15T03:07:54.006Z,22.92
2017-07-15T03:08:19.540Z,22.9
2017-07-15T03:08:45.154Z,22.96
2017-07-15T03:09:10.712Z,22.9
2017-07-15T03:09:36.261Z,22.87
2017-07-15T03:10:01.882Z,22.89
2017-07-15T03:10:27.439Z,22.87
2017-07-15T03:10:52.998Z,22.87
2017-07-15T03:11:18.553Z,22.89
2017-07-15T03:11:44.168Z,22.86
2017-07-15T03:12:09.724Z,22.87
2017-07-15T03:12:35.288Z,22.9
2017-07-15T03:13:00.850Z,22.87
2017-07-15T03:13:26.408Z,22.89
2017-07-15T03:13:51.984Z,22.89
2017-07-15T03:14:17.531Z,22.9
2017-07-15T03:14:43.132Z,22.89
2017-07-15T03:15:08.704Z,22.87
2017-07-15T03:15:34.263Z,22.87
2017-07-15T03:15:59.817Z,22.89
2017-07-15T03:16:25.363Z,22.92
2017-07-15T03:16:50.954Z,22.87
2017-07-15T03:17:16.499Z,22.89
2017-07-15T03:17:42.054Z,22.87
2017-07-15T03:18:07.629Z,22.86
2017-07-15T03:18:33.206Z,22.87
2017-07-15T03:18:58.870Z,22.87
2017-07-15T03:19:24.427Z,22.89
2017-07-15T03:19:50.010Z,22.84
2017-07-15T03:20:15.564Z,22.89
2017-07-15T03:20:41.124Z,22.9
2017-07-15T03:21:06.668Z,22.89
2017-07-15T03:21:32.223Z,22.86
2017-07-15T03:21:57.878Z,22.89
2017-07-15T03:22:23.427Z,22.9
2017-07-15T03:22:48.990Z,22.92
2017-07-15T03:23:14.560Z,22.87
2017-07-15T03:23:40.102Z,22.87
2017-07-15T03:24:05.668Z,22.9
2017-07-15T03:24:31.220Z,22.9
2017-07-15T03:24:56.780Z,22.92
2017-07-15T03:25:22.326Z,22.86
2017-07-15T03:25:47.883Z,22.92
2017-07-15T03:26:13.451Z,22.94
2017-07-15T03:26:39.019Z,22.9
2017-07-15T03:27:04.615Z,22.94
2017-07-15T03:27:30.164Z,22.94
2017-07-15T03:27:55.722Z,22.87
2017-07-15T03:28:21.283Z,22.78
2017-07-15T03:28:46.852Z,22.92
2017-07-15T03:29:12.408Z,22.89
2017-07-15T03:29:37.973Z,22.86
2017-07-15T03:30:03.545Z,22.89
2017-07-15T03:30:29.117Z,22.87
2017-07-15T03:30:54.693Z,22.86
2017-07-15T03:31:20.270Z,22.9
2017-07-15T03:31:45.859Z,22.89
2017-07-15T03:32:11.451Z,22.86
2017-07-15T03:32:37.010Z,22.89
2017-07-15T03:33:02.564Z,22.89
2017-07-15T03:33:28.239Z,22.9
2017-07-15T03:33:53.781Z,22.9
2017-07-15T03:34:19.335Z,22.89
2017-07-15T03:34:44.916Z,22.89
2017-07-15T03:35:10.467Z,22.84
2017-07-15T03:35:36.032Z,22.87
2017-07-15T03:36:01.584Z,22.92
2017-07-15T03:36:27.140Z,22.87
2017-07-15T03:36:52.749Z,22.89
2017-07-15T03:37:18.280Z,22.9
2017-07-15T03:37:43.855Z,22.89
2017-07-15T03:38:09.442Z,22.92
2017-07-15T03:38:35.014Z,22.9
2017-07-15T03:39:00.568Z,22.89
2017-07-15T03:39:26.140Z,22.87
2017-07-15T03:39:51.889Z,22.82
2017-07-15T03:40:17.449Z,22.82
2017-07-15T03:40:43.010Z,22.89
2017-07-15T03:41:08.589Z,22.89
2017-07-15T03:41:34.162Z,22.89
2017-07-15T03:41:59.720Z,22.92
2017-07-15T03:42:25.289Z,22.9
2017-07-15T03:42:50.842Z,22.83
2017-07-15T03:43:16.392Z,22.89
2017-07-15T03:43:41.958Z,22.86
2017-07-15T03:44:07.534Z,22.84
2017-07-15T03:44:33.083Z,22.9
2017-07-15T03:44:58.634Z,22.82
2017-07-15T03:45:24.210Z,22.82
2017-07-15T03:45:49.852Z,22.78
2017-07-15T03:46:15.451Z,22.83
2017-07-15T03:46:41.011Z,22.89
2017-07-15T03:47:06.573Z,22.87
2017-07-15T03:47:32.133Z,22.9
2017-07-15T03:47:57.701Z,22.84
2017-07-15T03:48:23.313Z,22.75
2017-07-15T03:48:48.872Z,22.9
2017-07-15T03:49:14.521Z,22.92
2017-07-15T03:49:40.081Z,22.82
2017-07-15T03:50:05.636Z,22.82
2017-07-15T03:50:31.194Z,22.87
2017-07-15T03:50:56.762Z,22.82
2017-07-15T03:51:22.322Z,22.82
2017-07-15T03:51:47.896Z,22.83
2017-07-15T03:52:13.470Z,22.89
2017-07-15T03:52:39.047Z,22.89
2017-07-15T03:53:04.593Z,22.78
2017-07-15T03:53:30.161Z,22.86
2017-07-15T03:53:55.743Z,22.87
2017-07-15T03:54:21.302Z,22.87
2017-07-15T03:54:46.852Z,22.8
2017-07-15T03:55:12.413Z,22.87
2017-07-15T03:55:37.977Z,22.8
2017-07-15T03:56:03.555Z,22.8
2017-07-15T03:56:29.111Z,22.93
2017-07-15T03:56:54.669Z,22.78
2017-07-15T03:57:20.244Z,22.82
2017-07-15T03:57:45.794Z,22.83
2017-07-15T03:58:11.355Z,22.89
2017-07-15T03:58:36.971Z,22.84
2017-07-15T03:59:02.563Z,22.82
2017-07-15T03:59:28.109Z,22.83
2017-07-15T03:59:53.687Z,22.84
2017-07-15T04:00:19.227Z,22.87
2017-07-15T04:00:44.809Z,22.8
2017-07-15T04:01:10.378Z,22.83
2017-07-15T04:01:35.932Z,22.92
2017-07-15T04:02:01.502Z,22.83
2017-07-15T04:02:27.051Z,22.78
2017-07-15T04:02:52.610Z,22.82
2017-07-15T04:03:18.220Z,22.84
2017-07-15T04:03:43.792Z,22.84
2017-07-15T04:04:09.349Z,22.83
2017-07-15T04:04:34.908Z,22.8
2017-07-15T04:05:00.499Z,22.77
2017-07-15T04:05:26.043Z,22.78
2017-07-15T04:05:51.606Z,22.78
2017-07-15T04:06:17.193Z,22.86
2017-07-15T04:06:42.745Z,22.83
2017-07-15T04:07:08.312Z,22.86
2017-07-15T04:07:33.873Z,22.82
2017-07-15T04:07:59.516Z,22.78
2017-07-15T04:08:25.086Z,22.84
2017-07-15T04:08:50.653Z,22.83
2017-07-15T04:09:16.297Z,22.83
2017-07-15T04:09:41.854Z,22.86
2017-07-15T04:10:07.415Z,22.86
2017-07-15T04:10:32.971Z,22.83
2017-07-15T04:10:58.532Z,22.78
2017-07-15T04:11:24.101Z,22.83
2017-07-15T04:11:49.747Z,22.83
2017-07-15T04:12:15.303Z,22.84
2017-07-15T04:12:40.860Z,22.78
2017-07-15T04:13:06.410Z,22.87
2017-07-15T04:13:31.972Z,22.87
2017-07-15T04:13:57.535Z,22.8
2017-07-15T04:14:23.096Z,22.78
2017-07-15T04:14:48.790Z,22.8
2017-07-15T04:15:14.350Z,22.78
2017-07-15T04:15:39.912Z,22.9
2017-07-15T04:16:05.486Z,22.86
2017-07-15T04:16:31.049Z,22.82
2017-07-15T04:16:56.650Z,22.78
2017-07-15T04:17:22.261Z,22.78
2017-07-15T04:17:47.817Z,22.83
2017-07-15T04:18:13.373Z,22.78
2017-07-15T04:18:38.968Z,22.8
2017-07-15T04:19:04.555Z,22.8
2017-07-15T04:19:30.118Z,22.84
2017-07-15T04:19:55.670Z,22.78
2017-07-15T04:20:21.229Z,22.75
2017-07-15T04:20:46.782Z,22.82
2017-07-15T04:21:12.341Z,22.78
2017-07-15T04:21:37.920Z,22.78
2017-07-15T04:22:03.529Z,22.82
2017-07-15T04:22:29.136Z,22.86
2017-07-15T04:22:54.710Z,22.77
2017-07-15T04:23:20.275Z,22.78
2017-07-15T04:23:46.007Z,22.83
2017-07-15T04:24:11.564Z,22.8
2017-07-15T04:24:37.131Z,22.78
2017-07-15T04:25:02.683Z,22.92
2017-07-15T04:25:28.245Z,22.78
2017-07-15T04:25:53.821Z,22.84
2017-07-15T04:26:19.381Z,22.87
2017-07-15T04:26:44.960Z,22.82
2017-07-15T04:27:10.524Z,22.82
2017-07-15T04:27:36.104Z,22.83
2017-07-15T04:28:01.740Z,22.83
2017-07-15T04:28:27.280Z,22.78
2017-07-15T04:28:52.841Z,22.78
2017-07-15T04:29:18.407Z,22.8
2017-07-15T04:29:43.965Z,22.83
2017-07-15T04:30:09.566Z,22.78
2017-07-15T04:30:35.173Z,22.78
2017-07-15T04:31:00.752Z,22.82
2017-07-15T04:31:26.352Z,22.8
2017-07-15T04:31:51.901Z,22.78
2017-07-15T04:32:17.474Z,22.84
2017-07-15T04:32:43.056Z,22.78
2017-07-15T04:33:08.646Z,22.74
2017-07-15T04:33:34.225Z,22.8
2017-07-15T04:33:59.762Z,22.84
2017-07-15T04:34:25.323Z,22.78
2017-07-15T04:34:50.882Z,22.89
2017-07-15T04:35:16.465Z,22.83
2017-07-15T04:35:42.077Z,22.83
2017-07-15T04:36:07.635Z,22.84
2017-07-15T04:36:33.192Z,22.8
2017-07-15T04:36:58.845Z,22.78
2017-07-15T04:37:24.428Z,22.78
2017-07-15T04:37:50.018Z,22.84
2017-07-15T04:38:15.575Z,22.82
2017-07-15T04:38:41.147Z,22.84
2017-07-15T04:39:06.699Z,22.8
2017-07-15T04:39:32.269Z,22.78
2017-07-15T04:39:57.821Z,22.83
2017-07-15T04:40:23.382Z,22.84
2017-07-15T04:40:48.953Z,22.78
2017-07-15T04:41:14.500Z,22.83
2017-07-15T04:41:40.102Z,22.8
2017-07-15T04:42:28.485Z,22.84
2017-07-15T04:42:54.036Z,22.8
2017-07-15T04:43:19.593Z,22.84
2017-07-15T04:43:45.138Z,22.82
2017-07-15T04:44:10.864Z,22.83
2017-07-15T04:44:36.477Z,22.78
2017-07-15T04:45:02.028Z,22.78
2017-07-15T04:45:27.588Z,22.82
2017-07-15T04:45:53.143Z,22.78
2017-07-15T04:46:18.717Z,22.83
2017-07-15T04:46:44.355Z,22.82
2017-07-15T04:47:09.903Z,22.82
2017-07-15T04:47:35.461Z,22.89
2017-07-15T04:48:01.020Z,22.78
2017-07-15T04:48:26.599Z,22.78
2017-07-15T04:48:52.182Z,22.78
2017-07-15T04:49:17.763Z,22.82
2017-07-15T04:49:43.322Z,22.75
2017-07-15T04:50:08.906Z,22.78
2017-07-15T04:50:34.473Z,22.8
2017-07-15T04:51:00.032Z,22.78
2017-07-15T04:51:25.590Z,22.78
2017-07-15T04:51:51.142Z,22.77
2017-07-15T04:52:16.699Z,22.82
2017-07-15T04:52:42.262Z,22.8
2017-07-15T04:53:07.825Z,22.84
2017-07-15T04:53:33.395Z,22.82
2017-07-15T04:53:58.973Z,22.83
2017-07-15T04:54:24.541Z,22.83
2017-07-15T04:54:50.105Z,22.74
2017-07-15T04:55:15.666Z,22.8
2017-07-15T04:55:41.226Z,22.78
2017-07-15T04:56:06.786Z,22.75
2017-07-15T04:56:32.345Z,22.78
2017-07-15T04:56:57.916Z,22.78
2017-07-15T04:57:23.548Z,22.82
2017-07-15T04:57:49.105Z,22.83
2017-07-15T04:58:14.656Z,22.82
2017-07-15T04:58:40.227Z,22.78
2017-07-15T04:59:05.800Z,22.77
2017-07-15T04:59:31.363Z,22.78
2017-07-15T04:59:56.964Z,22.82
2017-07-15T05:00:22.518Z,22.84
2017-07-15T05:00:48.094Z,22.82
2017-07-15T05:01:13.692Z,22.78
2017-07-15T05:01:39.255Z,22.82
2017-07-15T05:02:04.815Z,22.82
2017-07-15T05:02:30.371Z,22.74
2017-07-15T05:02:55.944Z,22.84
2017-07-15T05:03:21.540Z,22.75
2017-07-15T05:03:47.102Z,22.78
2017-07-15T05:04:12.676Z,22.82
2017-07-15T05:04:38.349Z,22.82
2017-07-15T05:05:03.903Z,22.77
2017-07-15T05:05:29.462Z,22.75
2017-07-15T05:05:55.027Z,22.84
2017-07-15T05:06:20.617Z,22.78
2017-07-15T05:06:46.219Z,22.74
2017-07-15T05:07:11.786Z,22.78
2017-07-15T05:07:37.336Z,22.82
2017-07-15T05:08:02.891Z,22.78
2017-07-15T05:08:28.452Z,22.78
2017-07-15T05:08:53.992Z,22.77
2017-07-15T05:09:19.571Z,22.8
2017-07-15T05:09:45.239Z,22.84
2017-07-15T05:10:10.816Z,22.77
2017-07-15T05:10:36.381Z,22.75
2017-07-15T05:11:01.939Z,22.78
2017-07-15T05:11:27.516Z,22.75
2017-07-15T05:11:53.119Z,22.83
2017-07-15T05:12:18.693Z,22.77
2017-07-15T05:12:44.250Z,22.87
2017-07-15T05:13:09.831Z,22.82
2017-07-15T05:13:35.382Z,22.78
2017-07-15T05:14:01.022Z,22.78
2017-07-15T05:14:26.585Z,22.82
2017-07-15T05:14:52.145Z,22.82
2017-07-15T05:15:17.706Z,22.78
2017-07-15T05:15:43.279Z,22.78
2017-07-15T05:16:08.846Z,22.83
2017-07-15T05:16:34.405Z,22.78
2017-07-15T05:16:59.962Z,22.84
2017-07-15T05:17:25.531Z,22.84
2017-07-15T05:17:51.219Z,22.83
2017-07-15T05:18:16.802Z,22.83
2017-07-15T05:18:42.372Z,22.77
2017-07-15T05:19:07.922Z,22.82
2017-07-15T05:19:33.481Z,22.8
2017-07-15T05:19:59.057Z,22.86
2017-07-15T05:20:24.592Z,22.75
2017-07-15T05:20:50.142Z,22.77
2017-07-15T05:21:15.714Z,22.8
2017-07-15T05:21:41.292Z,22.78
2017-07-15T05:22:06.848Z,22.84
2017-07-15T05:22:32.443Z,22.83
2017-07-15T05:22:58.063Z,22.78
2017-07-15T05:23:23.620Z,22.71
2017-07-15T05:23:49.206Z,22.86
2017-07-15T05:24:14.777Z,22.72
2017-07-15T05:24:40.357Z,22.8
2017-07-15T05:25:05.926Z,22.78
2017-07-15T05:25:31.493Z,22.77
2017-07-15T05:25:57.045Z,22.78
2017-07-15T05:26:22.646Z,22.78
2017-07-15T05:26:48.204Z,22.78
2017-07-15T05:27:13.893Z,22.77
2017-07-15T05:27:39.465Z,22.74
2017-07-15T05:28:05.045Z,22.77
2017-07-15T05:28:30.609Z,22.75
2017-07-15T05:28:56.195Z,22.75
2017-07-15T05:29:21.768Z,22.8
2017-07-15T05:29:47.322Z,22.82
2017-07-15T05:30:12.903Z,22.75
2017-07-15T05:30:38.462Z,22.78
2017-07-15T05:31:04.033Z,22.78
2017-07-15T05:31:29.591Z,22.78
2017-07-15T05:31:55.144Z,22.78
2017-07-15T05:32:20.781Z,22.8
2017-07-15T05:32:46.345Z,22.82
2017-07-15T05:33:11.898Z,22.83
2017-07-15T05:33:37.520Z,22.78